Terminal Aerodrome Forecast
Issued by NWS

Home | Current Version | Previous Version | Text Only | Print | Product List | Glossary On
Versions: 1 2 3 4 5 6 7 8 9 10 11 12 13 14 15 16 17
000
FTUS45 KABQ 231100
TAFAEG
TAF
KAEG 231139Z 2312/2412 34007KT P6SM FEW070 SCT100
     FM231800 14010KT P6SM SCT100 SCT150
     FM232300 14011KT P6SM VCTS BKN100CB
     FM240200 15010KT P6SM BKN120
     FM240400 14006KT P6SM SCT150=

USA.gov is the U.S. government's official web portal to all federal, state and local government web resources and services.